sensor_id;sensor_type;location;lat;lon;timestamp;temperature;humidity
44229;DHT22;29904;51.058;5.378;2023-03-01T00:01:06;-0.10;99.90
44229;DHT22;29904;51.058;5.378;2023-03-01T00:03:34;-0.10;99.90
44229;DHT22;29904;51.058;5.378;2023-03-01T00:06:02;-0.10;99.90
44229;DHT22;29904;51.058;5.378;2023-03-01T00:08:29;-0.20;99.90
44229;DHT22;29904;51.058;5.378;2023-03-01T00:11:08;-0.20;99.90
44229;DHT22;29904;51.058;5.378;2023-03-01T00:13:35;-0.20;99.90
44229;DHT22;29904;51.058;5.378;2023-03-01T00:16:12;-0.30;99.90
44229;DHT22;29904;51.058;5.378;2023-03-01T00:18:41;-0.30;99.90
44229;DHT22;29904;51.058;5.378;2023-03-01T00:21:06;-0.30;99.90
44229;DHT22;29904;51.058;5.378;2023-03-01T00:23:34;-0.30;99.90
44229;DHT22;29904;51.058;5.378;2023-03-01T00:26:04;-0.30;99.90
44229;DHT22;29904;51.058;5.378;2023-03-01T00:28:31;-0.30;99.90
44229;DHT22;29904;51.058;5.378;2023-03-01T00:31:03;-0.30;99.90
44229;DHT22;29904;51.058;5.378;2023-03-01T00:33:29;-0.40;99.90
44229;DHT22;29904;51.058;5.378;2023-03-01T00:35:54;-0.40;99.90
44229;DHT22;29904;51.058;5.378;2023-03-01T00:38:23;-0.40;99.90
44229;DHT22;29904;51.058;5.378;2023-03-01T00:40:48;-0.40;99.90
44229;DHT22;29904;51.058;5.378;2023-03-01T00:43:14;-0.40;99.90
44229;DHT22;29904;51.058;5.378;2023-03-01T00:45:40;-0.50;99.90
44229;DHT22;29904;51.058;5.378;2023-03-01T00:48:05;-0.50;99.90
44229;DHT22;29904;51.058;5.378;2023-03-01T00:50:31;-0.50;99.90
44229;DHT22;29904;51.058;5.378;2023-03-01T00:52:59;-0.50;99.90
44229;DHT22;29904;51.058;5.378;2023-03-01T00:55:25;-0.50;99.90
44229;DHT22;29904;51.058;5.378;2023-03-01T00:57:51;-0.50;99.90
44229;DHT22;29904;51.058;5.378;2023-03-01T01:00:18;-0.60;99.90
44229;DHT22;29904;51.058;5.378;2023-03-01T01:02:44;-0.60;99.90
44229;DHT22;29904;51.058;5.378;2023-03-01T01:05:10;-0.60;99.90
44229;DHT22;29904;51.058;5.378;2023-03-01T01:07:35;-0.60;99.90
44229;DHT22;29904;51.058;5.378;2023-03-01T01:10:01;-0.60;99.90
44229;DHT22;29904;51.058;5.378;2023-03-01T01:12:27;-0.60;99.90
44229;DHT22;29904;51.058;5.378;2023-03-01T01:14:55;-0.60;99.90
44229;DHT22;29904;51.058;5.378;2023-03-01T01:17:21;-0.70;99.90
44229;DHT22;29904;51.058;5.378;2023-03-01T01:19:46;-0.60;99.90
44229;DHT22;29904;51.058;5.378;2023-03-01T01:22:14;-0.70;99.90
44229;DHT22;29904;51.058;5.378;2023-03-01T01:24:39;-0.70;99.90
44229;DHT22;29904;51.058;5.378;2023-03-01T01:27:05;-0.70;99.90
44229;DHT22;29904;51.058;5.378;2023-03-01T01:29:32;-0.70;99.90
44229;DHT22;29904;51.058;5.378;2023-03-01T01:31:58;-0.80;99.90
44229;DHT22;29904;51.058;5.378;2023-03-01T01:34:24;-0.80;99.90
44229;DHT22;29904;51.058;5.378;2023-03-01T01:36:55;-0.80;99.90
44229;DHT22;29904;51.058;5.378;2023-03-01T01:39:21;-0.80;99.90
44229;DHT22;29904;51.058;5.378;2023-03-01T01:41:47;-0.90;99.90
44229;DHT22;29904;51.058;5.378;2023-03-01T01:46:52;-0.90;99.90
44229;DHT22;29904;51.058;5.378;2023-03-01T01:49:46;-1.00;99.90
44229;DHT22;29904;51.058;5.378;2023-03-01T01:54:57;-1.00;99.90
44229;DHT22;29904;51.058;5.378;2023-03-01T01:57:35;-1.00;99.90
44229;DHT22;29904;51.058;5.378;2023-03-01T02:00:09;-1.10;99.90
44229;DHT22;29904;51.058;5.378;2023-03-01T02:02:36;-1.20;99.90
44229;DHT22;29904;51.058;5.378;2023-03-01T02:05:09;-1.20;99.90
44229;DHT22;29904;51.058;5.378;2023-03-01T02:07:38;-1.20;99.90
44229;DHT22;29904;51.058;5.378;2023-03-01T02:10:05;-1.30;99.90
44229;DHT22;29904;51.058;5.378;2023-03-01T02:12:32;-1.30;99.90
44229;DHT22;29904;51.058;5.378;2023-03-01T02:14:59;-1.30;99.90
44229;DHT22;29904;51.058;5.378;2023-03-01T02:17:25;-1.30;99.90
44229;DHT22;29904;51.058;5.378;2023-03-01T02:20:01;-1.30;99.90
44229;DHT22;29904;51.058;5.378;2023-03-01T02:22:33;-1.30;99.90
44229;DHT22;29904;51.058;5.378;2023-03-01T02:30:25;-1.30;99.90
44229;DHT22;29904;51.058;5.378;2023-03-01T02:32:54;-1.30;99.90
44229;DHT22;29904;51.058;5.378;2023-03-01T02:35:31;-1.30;99.90
44229;DHT22;29904;51.058;5.378;2023-03-01T02:37:58;-1.30;99.90
44229;DHT22;29904;51.058;5.378;2023-03-01T02:40:30;-1.30;99.90
44229;DHT22;29904;51.058;5.378;2023-03-01T02:42:58;-1.30;99.90
44229;DHT22;29904;51.058;5.378;2023-03-01T02:45:25;-1.30;99.90
44229;DHT22;29904;51.058;5.378;2023-03-01T02:47:54;-1.30;99.90
44229;DHT22;29904;51.058;5.378;2023-03-01T02:53:45;-1.20;99.90
44229;DHT22;29904;51.058;5.378;2023-03-01T02:56:16;-1.30;99.90
44229;DHT22;29904;51.058;5.378;2023-03-01T02:58:43;-1.30;99.90
44229;DHT22;29904;51.058;5.378;2023-03-01T03:01:20;-1.30;99.90
44229;DHT22;29904;51.058;5.378;2023-03-01T03:03:46;-1.30;99.90
44229;DHT22;29904;51.058;5.378;2023-03-01T03:06:12;-1.40;99.90
44229;DHT22;29904;51.058;5.378;2023-03-01T03:08:40;-1.40;99.90
44229;DHT22;29904;51.058;5.378;2023-03-01T03:11:06;-1.40;99.90
44229;DHT22;29904;51.058;5.378;2023-03-01T03:13:31;-1.40;99.90
44229;DHT22;29904;51.058;5.378;2023-03-01T03:15:57;-1.40;99.90
44229;DHT22;29904;51.058;5.378;2023-03-01T03:18:24;-1.40;99.90
44229;DHT22;29904;51.058;5.378;2023-03-01T03:20:53;-1.40;99.90
44229;DHT22;29904;51.058;5.378;2023-03-01T03:23:21;-1.40;99.90
44229;DHT22;29904;51.058;5.378;2023-03-01T03:25:50;-1.40;99.90
44229;DHT22;29904;51.058;5.378;2023-03-01T03:28:18;-1.40;99.90
44229;DHT22;29904;51.058;5.378;2023-03-01T03:30:44;-1.40;99.90
44229;DHT22;29904;51.058;5.378;2023-03-01T03:33:11;-1.40;99.90
44229;DHT22;29904;51.058;5.378;2023-03-01T03:35:45;-1.40;99.90
44229;DHT22;29904;51.058;5.378;2023-03-01T03:38:13;-1.40;99.90
44229;DHT22;29904;51.058;5.378;2023-03-01T03:40:47;-1.40;99.90
44229;DHT22;29904;51.058;5.378;2023-03-01T03:43:23;-1.50;99.90
44229;DHT22;29904;51.058;5.378;2023-03-01T03:45:53;-1.50;99.90
44229;DHT22;29904;51.058;5.378;2023-03-01T03:48:20;-1.50;99.90
44229;DHT22;29904;51.058;5.378;2023-03-01T03:50:53;-1.50;99.90
44229;DHT22;29904;51.058;5.378;2023-03-01T03:53:22;-1.50;99.90
44229;DHT22;29904;51.058;5.378;2023-03-01T03:55:48;-1.60;99.90
44229;DHT22;29904;51.058;5.378;2023-03-01T03:58:15;-1.60;99.90
44229;DHT22;29904;51.058;5.378;2023-03-01T04:00:43;-1.70;99.90
44229;DHT22;29904;51.058;5.378;2023-03-01T04:03:11;-1.70;99.90
44229;DHT22;29904;51.058;5.378;2023-03-01T04:05:39;-1.70;99.90
44229;DHT22;29904;51.058;5.378;2023-03-01T04:08:06;-1.70;99.90
44229;DHT22;29904;51.058;5.378;2023-03-01T04:13:02;-1.70;99.90
44229;DHT22;29904;51.058;5.378;2023-03-01T04:15:28;-1.80;99.90
44229;DHT22;29904;51.058;5.378;2023-03-01T04:17:54;-1.80;99.90
44229;DHT22;29904;51.058;5.378;2023-03-01T04:20:23;-1.80;99.90
44229;DHT22;29904;51.058;5.378;2023-03-01T04:23:01;-1.80;99.90
44229;DHT22;29904;51.058;5.378;2023-03-01T04:25:56;-1.80;99.90
44229;DHT22;29904;51.058;5.378;2023-03-01T04:28:28;-1.80;99.90
44229;DHT22;29904;51.058;5.378;2023-03-01T04:30:57;-1.90;99.90
44229;DHT22;29904;51.058;5.378;2023-03-01T04:33:24;-1.90;99.90
44229;DHT22;29904;51.058;5.378;2023-03-01T04:35:50;-1.90;99.90
44229;DHT22;29904;51.058;5.378;2023-03-01T04:38:21;-1.90;99.90
44229;DHT22;29904;51.058;5.378;2023-03-01T04:40:47;-1.90;99.90
44229;DHT22;29904;51.058;5.378;2023-03-01T04:43:13;-2.00;99.90
44229;DHT22;29904;51.058;5.378;2023-03-01T04:45:42;-2.00;99.90
44229;DHT22;29904;51.058;5.378;2023-03-01T04:48:07;-2.00;99.90
44229;DHT22;29904;51.058;5.378;2023-03-01T04:50:33;-2.00;99.90
44229;DHT22;29904;51.058;5.378;2023-03-01T04:53:00;-2.00;99.90
44229;DHT22;29904;51.058;5.378;2023-03-01T04:55:29;-2.00;99.90
44229;DHT22;29904;51.058;5.378;2023-03-01T04:57:55;-2.10;99.90
44229;DHT22;29904;51.058;5.378;2023-03-01T05:00:21;-2.00;99.90
44229;DHT22;29904;51.058;5.378;2023-03-01T05:02:54;-2.00;99.90
44229;DHT22;29904;51.058;5.378;2023-03-01T05:05:21;-2.00;99.90
44229;DHT22;29904;51.058;5.378;2023-03-01T05:08:00;-2.00;99.90
44229;DHT22;29904;51.058;5.378;2023-03-01T05:10:29;-2.00;99.90
44229;DHT22;29904;51.058;5.378;2023-03-01T05:12:56;-2.10;99.90
44229;DHT22;29904;51.058;5.378;2023-03-01T05:15:23;-2.00;99.90
44229;DHT22;29904;51.058;5.378;2023-03-01T05:17:54;-2.10;99.90
44229;DHT22;29904;51.058;5.378;2023-03-01T05:20:20;-2.00;99.90
44229;DHT22;29904;51.058;5.378;2023-03-01T05:22:51;-2.10;99.90
44229;DHT22;29904;51.058;5.378;2023-03-01T05:25:17;-2.10;99.90
44229;DHT22;29904;51.058;5.378;2023-03-01T05:27:43;-2.10;99.90
44229;DHT22;29904;51.058;5.378;2023-03-01T05:30:09;-2.10;99.90
44229;DHT22;29904;51.058;5.378;2023-03-01T05:32:47;-2.10;99.90
44229;DHT22;29904;51.058;5.378;2023-03-01T05:35:15;-2.10;99.90
44229;DHT22;29904;51.058;5.378;2023-03-01T05:37:46;-2.10;99.90
44229;DHT22;29904;51.058;5.378;2023-03-01T05:40:18;-2.20;99.90
44229;DHT22;29904;51.058;5.378;2023-03-01T05:42:45;-2.10;99.90
44229;DHT22;29904;51.058;5.378;2023-03-01T05:45:12;-2.20;99.90
44229;DHT22;29904;51.058;5.378;2023-03-01T05:47:39;-2.20;99.90
44229;DHT22;29904;51.058;5.378;2023-03-01T05:50:13;-2.20;99.90
44229;DHT22;29904;51.058;5.378;2023-03-01T05:52:40;-2.20;99.90
44229;DHT22;29904;51.058;5.378;2023-03-01T05:55:06;-2.10;99.90
44229;DHT22;29904;51.058;5.378;2023-03-01T05:57:32;-2.20;99.90
44229;DHT22;29904;51.058;5.378;2023-03-01T05:59:58;-2.20;99.90
44229;DHT22;29904;51.058;5.378;2023-03-01T06:02:23;-2.20;99.90
44229;DHT22;29904;51.058;5.378;2023-03-01T06:04:49;-2.20;99.90
44229;DHT22;29904;51.058;5.378;2023-03-01T06:07:16;-2.20;99.90
44229;DHT22;29904;51.058;5.378;2023-03-01T06:09:42;-2.20;99.90
44229;DHT22;29904;51.058;5.378;2023-03-01T06:12:08;-2.20;99.90
44229;DHT22;29904;51.058;5.378;2023-03-01T06:14:35;-2.30;99.90
44229;DHT22;29904;51.058;5.378;2023-03-01T06:17:01;-2.30;99.90
44229;DHT22;29904;51.058;5.378;2023-03-01T06:19:27;-2.30;99.90
44229;DHT22;29904;51.058;5.378;2023-03-01T06:21:53;-2.20;99.90
44229;DHT22;29904;51.058;5.378;2023-03-01T06:24:18;-2.20;99.90
44229;DHT22;29904;51.058;5.378;2023-03-01T06:26:44;-2.20;99.90
44229;DHT22;29904;51.058;5.378;2023-03-01T06:29:10;-2.20;99.90
44229;DHT22;29904;51.058;5.378;2023-03-01T06:31:35;-2.20;99.90
44229;DHT22;29904;51.058;5.378;2023-03-01T06:34:01;-2.10;99.90
44229;DHT22;29904;51.058;5.378;2023-03-01T06:36:27;-2.20;99.90
44229;DHT22;29904;51.058;5.378;2023-03-01T06:38:53;-2.20;99.90
44229;DHT22;29904;51.058;5.378;2023-03-01T06:41:18;-2.20;99.90
44229;DHT22;29904;51.058;5.378;2023-03-01T06:43:46;-2.20;99.90
44229;DHT22;29904;51.058;5.378;2023-03-01T06:46:12;-2.00;99.90
44229;DHT22;29904;51.058;5.378;2023-03-01T06:48:37;-2.10;99.90
44229;DHT22;29904;51.058;5.378;2023-03-01T06:51:03;-2.00;99.90
44229;DHT22;29904;51.058;5.378;2023-03-01T06:53:29;-1.90;99.90
44229;DHT22;29904;51.058;5.378;2023-03-01T06:55:58;-1.80;99.90
44229;DHT22;29904;51.058;5.378;2023-03-01T06:58:26;-1.60;99.90
44229;DHT22;29904;51.058;5.378;2023-03-01T07:00:52;-1.30;99.90
44229;DHT22;29904;51.058;5.378;2023-03-01T07:03:17;-1.00;99.90
44229;DHT22;29904;51.058;5.378;2023-03-01T07:05:48;-0.80;99.90
44229;DHT22;29904;51.058;5.378;2023-03-01T07:08:14;-0.80;99.90
44229;DHT22;29904;51.058;5.378;2023-03-01T07:10:39;-0.80;99.90
44229;DHT22;29904;51.058;5.378;2023-03-01T07:13:07;-0.90;99.90
44229;DHT22;29904;51.058;5.378;2023-03-01T07:15:35;-0.90;99.90
44229;DHT22;29904;51.058;5.378;2023-03-01T07:18:01;-1.00;99.90
44229;DHT22;29904;51.058;5.378;2023-03-01T07:20:28;-1.00;99.90
44229;DHT22;29904;51.058;5.378;2023-03-01T07:22:56;-0.90;99.90
44229;DHT22;29904;51.058;5.378;2023-03-01T07:25:24;-0.60;99.90
44229;DHT22;29904;51.058;5.378;2023-03-01T07:27:53;-0.60;99.90
44229;DHT22;29904;51.058;5.378;2023-03-01T07:30:20;-0.50;99.90
44229;DHT22;29904;51.058;5.378;2023-03-01T07:32:46;-0.40;99.90
44229;DHT22;29904;51.058;5.378;2023-03-01T07:35:12;-0.40;99.90
44229;DHT22;29904;51.058;5.378;2023-03-01T07:37:38;-0.40;99.90
44229;DHT22;29904;51.058;5.378;2023-03-01T07:40:04;-0.50;99.90
44229;DHT22;29904;51.058;5.378;2023-03-01T07:42:30;-0.50;99.90
44229;DHT22;29904;51.058;5.378;2023-03-01T07:44:55;-0.40;99.90
44229;DHT22;29904;51.058;5.378;2023-03-01T07:47:21;-0.40;99.90
44229;DHT22;29904;51.058;5.378;2023-03-01T07:49:47;-0.40;99.90
44229;DHT22;29904;51.058;5.378;2023-03-01T07:52:12;-0.30;99.90
44229;DHT22;29904;51.058;5.378;2023-03-01T07:54:39;-0.20;99.90
44229;DHT22;29904;51.058;5.378;2023-03-01T07:57:04;-0.10;99.90
44229;DHT22;29904;51.058;5.378;2023-03-01T07:59:30;-0.10;99.90
44229;DHT22;29904;51.058;5.378;2023-03-01T08:01:57;0.00;99.90
44229;DHT22;29904;51.058;5.378;2023-03-01T08:04:22;0.10;99.90
44229;DHT22;29904;51.058;5.378;2023-03-01T08:06:51;0.20;99.90
44229;DHT22;29904;51.058;5.378;2023-03-01T08:09:16;0.20;99.90
44229;DHT22;29904;51.058;5.378;2023-03-01T08:11:44;0.20;99.90
44229;DHT22;29904;51.058;5.378;2023-03-01T08:14:10;0.30;99.90
44229;DHT22;29904;51.058;5.378;2023-03-01T08:16:36;0.40;99.90
44229;DHT22;29904;51.058;5.378;2023-03-01T08:19:11;0.50;99.90
44229;DHT22;29904;51.058;5.378;2023-03-01T08:21:37;0.60;99.90
44229;DHT22;29904;51.058;5.378;2023-03-01T08:24:04;0.70;99.90
44229;DHT22;29904;51.058;5.378;2023-03-01T08:26:32;0.90;99.90
44229;DHT22;29904;51.058;5.378;2023-03-01T08:28:59;0.80;99.90
44229;DHT22;29904;51.058;5.378;2023-03-01T08:31:39;0.90;99.90
44229;DHT22;29904;51.058;5.378;2023-03-01T08:34:08;1.00;99.90
44229;DHT22;29904;51.058;5.378;2023-03-01T08:36:40;1.00;99.90
44229;DHT22;29904;51.058;5.378;2023-03-01T08:39:07;1.00;99.90
44229;DHT22;29904;51.058;5.378;2023-03-01T08:41:34;1.10;99.90
44229;DHT22;29904;51.058;5.378;2023-03-01T08:44:00;1.20;99.90
44229;DHT22;29904;51.058;5.378;2023-03-01T08:46:34;1.30;99.90
44229;DHT22;29904;51.058;5.378;2023-03-01T08:49:06;1.40;99.90
44229;DHT22;29904;51.058;5.378;2023-03-01T08:51:32;1.40;99.90
44229;DHT22;29904;51.058;5.378;2023-03-01T08:54:03;1.50;99.90
44229;DHT22;29904;51.058;5.378;2023-03-01T08:56:28;1.60;99.90
44229;DHT22;29904;51.058;5.378;2023-03-01T08:58:54;1.60;99.90
44229;DHT22;29904;51.058;5.378;2023-03-01T09:01:20;1.70;99.90
44229;DHT22;29904;51.058;5.378;2023-03-01T09:03:46;1.70;99.90
44229;DHT22;29904;51.058;5.378;2023-03-01T09:06:12;1.80;99.90
44229;DHT22;29904;51.058;5.378;2023-03-01T09:08:41;1.90;99.90
44229;DHT22;29904;51.058;5.378;2023-03-01T09:11:10;2.00;99.90
44229;DHT22;29904;51.058;5.378;2023-03-01T09:13:36;2.10;99.90
44229;DHT22;29904;51.058;5.378;2023-03-01T09:16:04;2.10;99.90
44229;DHT22;29904;51.058;5.378;2023-03-01T09:18:30;2.20;99.90
44229;DHT22;29904;51.058;5.378;2023-03-01T09:21:15;2.30;99.90
44229;DHT22;29904;51.058;5.378;2023-03-01T09:23:45;2.30;99.90
44229;DHT22;29904;51.058;5.378;2023-03-01T09:26:20;2.50;99.90
44229;DHT22;29904;51.058;5.378;2023-03-01T09:28:47;2.50;99.90
44229;DHT22;29904;51.058;5.378;2023-03-01T09:31:14;2.60;99.90
44229;DHT22;29904;51.058;5.378;2023-03-01T09:33:44;2.70;99.90
44229;DHT22;29904;51.058;5.378;2023-03-01T09:36:13;2.80;99.90
44229;DHT22;29904;51.058;5.378;2023-03-01T09:38:39;2.80;99.90
44229;DHT22;29904;51.058;5.378;2023-03-01T09:41:33;2.90;99.90
44229;DHT22;29904;51.058;5.378;2023-03-01T09:46:43;3.00;99.90
44229;DHT22;29904;51.058;5.378;2023-03-01T09:49:14;3.10;99.90
44229;DHT22;29904;51.058;5.378;2023-03-01T09:51:43;3.20;99.90
44229;DHT22;29904;51.058;5.378;2023-03-01T09:54:11;3.30;99.90
44229;DHT22;29904;51.058;5.378;2023-03-01T09:56:45;3.30;99.90
44229;DHT22;29904;51.058;5.378;2023-03-01T10:02:29;3.70;99.90
44229;DHT22;29904;51.058;5.378;2023-03-01T10:10:44;3.70;99.90
44229;DHT22;29904;51.058;5.378;2023-03-01T10:13:24;3.70;99.90
44229;DHT22;29904;51.058;5.378;2023-03-01T10:15:54;3.80;99.90
44229;DHT22;29904;51.058;5.378;2023-03-01T10:18:26;3.70;99.90
44229;DHT22;29904;51.058;5.378;2023-03-01T10:23:52;3.80;99.90
44229;DHT22;29904;51.058;5.378;2023-03-01T10:29:06;3.80;99.90
44229;DHT22;29904;51.058;5.378;2023-03-01T10:34:11;3.80;99.90
44229;DHT22;29904;51.058;5.378;2023-03-01T10:36:39;3.90;99.90
44229;DHT22;29904;51.058;5.378;2023-03-01T10:39:13;3.90;99.90
44229;DHT22;29904;51.058;5.378;2023-03-01T10:42:01;4.00;99.90
44229;DHT22;29904;51.058;5.378;2023-03-01T10:44:45;4.10;99.90
44229;DHT22;29904;51.058;5.378;2023-03-01T10:47:20;4.00;99.90
44229;DHT22;29904;51.058;5.378;2023-03-01T10:50:19;4.10;99.90
44229;DHT22;29904;51.058;5.378;2023-03-01T10:52:57;4.30;99.90
44229;DHT22;29904;51.058;5.378;2023-03-01T10:55:35;4.30;99.90
44229;DHT22;29904;51.058;5.378;2023-03-01T10:58:21;4.40;99.90
44229;DHT22;29904;51.058;5.378;2023-03-01T11:00:52;4.50;99.90
44229;DHT22;29904;51.058;5.378;2023-03-01T11:03:27;4.60;99.90
44229;DHT22;29904;51.058;5.378;2023-03-01T11:05:59;4.70;99.90
44229;DHT22;29904;51.058;5.378;2023-03-01T11:08:39;4.70;99.90
44229;DHT22;29904;51.058;5.378;2023-03-01T11:16:35;4.90;99.90
44229;DHT22;29904;51.058;5.378;2023-03-01T11:19:17;5.00;99.90
44229;DHT22;29904;51.058;5.378;2023-03-01T11:24:52;5.20;99.90
44229;DHT22;29904;51.058;5.378;2023-03-01T11:27:25;5.30;99.90
44229;DHT22;29904;51.058;5.378;2023-03-01T11:35:37;5.20;99.90
44229;DHT22;29904;51.058;5.378;2023-03-01T11:38:22;5.20;99.90
44229;DHT22;29904;51.058;5.378;2023-03-01T11:41:07;5.20;99.90
44229;DHT22;29904;51.058;5.378;2023-03-01T11:46:36;5.30;99.90
44229;DHT22;29904;51.058;5.378;2023-03-01T11:49:36;5.40;99.90
44229;DHT22;29904;51.058;5.378;2023-03-01T11:58:27;5.50;99.90
44229;DHT22;29904;51.058;5.378;2023-03-01T12:07:00;5.60;99.90
44229;DHT22;29904;51.058;5.378;2023-03-01T12:15:54;5.90;99.90
44229;DHT22;29904;51.058;5.378;2023-03-01T12:18:39;6.00;99.90
44229;DHT22;29904;51.058;5.378;2023-03-01T12:29:59;6.10;99.90
44229;DHT22;29904;51.058;5.378;2023-03-01T12:49:17;6.70;99.90
44229;DHT22;29904;51.058;5.378;2023-03-01T12:52:38;6.70;99.90
44229;DHT22;29904;51.058;5.378;2023-03-01T12:54:37;6.70;99.90
44229;DHT22;29904;51.058;5.378;2023-03-01T12:57:32;6.80;99.90
44229;DHT22;29904;51.058;5.378;2023-03-01T13:00:35;6.80;99.90
44229;DHT22;29904;51.058;5.378;2023-03-01T13:08:58;6.80;99.90
44229;DHT22;29904;51.058;5.378;2023-03-01T13:11:28;6.90;99.90
44229;DHT22;29904;51.058;5.378;2023-03-01T13:16:51;7.10;99.90
44229;DHT22;29904;51.058;5.378;2023-03-01T13:19:22;7.10;99.90
44229;DHT22;29904;51.058;5.378;2023-03-01T13:21:51;7.00;99.90
44229;DHT22;29904;51.058;5.378;2023-03-01T13:24:40;7.00;99.90
44229;DHT22;29904;51.058;5.378;2023-03-01T13:27:20;7.20;99.90
44229;DHT22;29904;51.058;5.378;2023-03-01T13:29:50;7.30;99.90
44229;DHT22;29904;51.058;5.378;2023-03-01T13:32:25;7.40;99.90
44229;DHT22;29904;51.058;5.378;2023-03-01T13:34:53;7.50;99.90
44229;DHT22;29904;51.058;5.378;2023-03-01T13:37:22;7.40;99.90
44229;DHT22;29904;51.058;5.378;2023-03-01T13:39:48;7.50;99.90
44229;DHT22;29904;51.058;5.378;2023-03-01T13:42:32;7.50;99.90
44229;DHT22;29904;51.058;5.378;2023-03-01T13:44:58;7.50;99.90
44229;DHT22;29904;51.058;5.378;2023-03-01T13:47:24;7.50;99.90
44229;DHT22;29904;51.058;5.378;2023-03-01T13:55:18;7.70;99.90
44229;DHT22;29904;51.058;5.378;2023-03-01T13:57:48;7.70;99.90
44229;DHT22;29904;51.058;5.378;2023-03-01T14:00:30;7.70;99.90
44229;DHT22;29904;51.058;5.378;2023-03-01T14:05:40;7.40;99.90
44229;DHT22;29904;51.058;5.378;2023-03-01T14:08:23;7.40;99.90
44229;DHT22;29904;51.058;5.378;2023-03-01T14:19:22;7.60;99.90
44229;DHT22;29904;51.058;5.378;2023-03-01T14:22:10;7.70;99.90
44229;DHT22;29904;51.058;5.378;2023-03-01T14:24:41;7.60;99.90
44229;DHT22;29904;51.058;5.378;2023-03-01T14:27:13;7.60;99.90
44229;DHT22;29904;51.058;5.378;2023-03-01T14:29:40;7.70;99.90
44229;DHT22;29904;51.058;5.378;2023-03-01T14:32:21;7.60;99.90
44229;DHT22;29904;51.058;5.378;2023-03-01T14:34:49;7.50;99.90
44229;DHT22;29904;51.058;5.378;2023-03-01T14:37:30;7.50;99.90
44229;DHT22;29904;51.058;5.378;2023-03-01T14:39:57;7.50;99.90
44229;DHT22;29904;51.058;5.378;2023-03-01T14:42:28;7.50;99.90
44229;DHT22;29904;51.058;5.378;2023-03-01T14:44:57;7.50;99.90
44229;DHT22;29904;51.058;5.378;2023-03-01T14:47:35;7.50;99.90
44229;DHT22;29904;51.058;5.378;2023-03-01T14:50:09;7.40;99.90
44229;DHT22;29904;51.058;5.378;2023-03-01T14:52:37;7.40;99.90
44229;DHT22;29904;51.058;5.378;2023-03-01T14:55:09;7.50;99.90
44229;DHT22;29904;51.058;5.378;2023-03-01T14:57:43;7.60;99.90
44229;DHT22;29904;51.058;5.378;2023-03-01T15:00:30;7.60;99.90
44229;DHT22;29904;51.058;5.378;2023-03-01T15:03:01;7.50;99.90
44229;DHT22;29904;51.058;5.378;2023-03-01T15:05:33;7.50;99.90
44229;DHT22;29904;51.058;5.378;2023-03-01T15:08:01;7.40;99.90
44229;DHT22;29904;51.058;5.378;2023-03-01T15:10:37;7.40;99.90
44229;DHT22;29904;51.058;5.378;2023-03-01T15:13:22;7.30;99.90
44229;DHT22;29904;51.058;5.378;2023-03-01T15:15:48;7.40;99.90
44229;DHT22;29904;51.058;5.378;2023-03-01T15:18:25;7.30;99.90
44229;DHT22;29904;51.058;5.378;2023-03-01T15:20:53;7.20;99.90
44229;DHT22;29904;51.058;5.378;2023-03-01T15:23:29;7.20;99.90
44229;DHT22;29904;51.058;5.378;2023-03-01T15:25:56;7.30;99.90
44229;DHT22;29904;51.058;5.378;2023-03-01T15:28:28;7.30;99.90
44229;DHT22;29904;51.058;5.378;2023-03-01T15:33:46;7.20;99.90
44229;DHT22;29904;51.058;5.378;2023-03-01T15:38:57;7.10;99.90
44229;DHT22;29904;51.058;5.378;2023-03-01T15:41:45;7.10;99.90
44229;DHT22;29904;51.058;5.378;2023-03-01T15:44:28;7.10;99.90
44229;DHT22;29904;51.058;5.378;2023-03-01T15:46:55;7.10;99.90
44229;DHT22;29904;51.058;5.378;2023-03-01T15:49:39;7.20;99.90
44229;DHT22;29904;51.058;5.378;2023-03-01T15:52:29;7.10;99.90
44229;DHT22;29904;51.058;5.378;2023-03-01T15:55:00;7.10;99.90
44229;DHT22;29904;51.058;5.378;2023-03-01T15:57:27;7.10;99.90
44229;DHT22;29904;51.058;5.378;2023-03-01T15:59:53;7.20;99.90
44229;DHT22;29904;51.058;5.378;2023-03-01T16:02:22;7.10;99.90
44229;DHT22;29904;51.058;5.378;2023-03-01T16:04:47;7.00;99.90
44229;DHT22;29904;51.058;5.378;2023-03-01T16:07:17;7.00;99.90
44229;DHT22;29904;51.058;5.378;2023-03-01T16:09:42;7.00;99.90
44229;DHT22;29904;51.058;5.378;2023-03-01T16:12:14;7.00;99.90
44229;DHT22;29904;51.058;5.378;2023-03-01T16:14:41;6.90;99.90
44229;DHT22;29904;51.058;5.378;2023-03-01T16:17:09;6.90;99.90
44229;DHT22;29904;51.058;5.378;2023-03-01T16:19:36;6.90;99.90
44229;DHT22;29904;51.058;5.378;2023-03-01T16:22:03;6.80;99.90
44229;DHT22;29904;51.058;5.378;2023-03-01T16:24:29;6.80;99.90
44229;DHT22;29904;51.058;5.378;2023-03-01T16:26:55;6.80;99.90
44229;DHT22;29904;51.058;5.378;2023-03-01T16:29:21;6.60;99.90
44229;DHT22;29904;51.058;5.378;2023-03-01T16:31:46;6.60;99.90
44229;DHT22;29904;51.058;5.378;2023-03-01T16:34:13;6.60;99.90
44229;DHT22;29904;51.058;5.378;2023-03-01T16:36:39;6.50;99.90
44229;DHT22;29904;51.058;5.378;2023-03-01T16:39:05;6.50;99.90
44229;DHT22;29904;51.058;5.378;2023-03-01T16:41:32;6.40;99.90
44229;DHT22;29904;51.058;5.378;2023-03-01T16:43:57;6.40;99.90
44229;DHT22;29904;51.058;5.378;2023-03-01T16:46:28;6.30;99.90
44229;DHT22;29904;51.058;5.378;2023-03-01T16:48:54;6.20;99.90
44229;DHT22;29904;51.058;5.378;2023-03-01T16:51:21;6.20;99.90
44229;DHT22;29904;51.058;5.378;2023-03-01T16:53:49;6.20;99.90
44229;DHT22;29904;51.058;5.378;2023-03-01T16:56:16;6.10;99.90
44229;DHT22;29904;51.058;5.378;2023-03-01T16:58:42;6.00;99.90
44229;DHT22;29904;51.058;5.378;2023-03-01T17:03:36;5.90;99.90
44229;DHT22;29904;51.058;5.378;2023-03-01T17:06:04;5.80;99.90
44229;DHT22;29904;51.058;5.378;2023-03-01T17:08:33;5.70;99.90
44229;DHT22;29904;51.058;5.378;2023-03-01T17:11:07;5.70;99.90
44229;DHT22;29904;51.058;5.378;2023-03-01T17:13:34;5.60;99.90
44229;DHT22;29904;51.058;5.378;2023-03-01T17:16:03;5.50;99.90
44229;DHT22;29904;51.058;5.378;2023-03-01T17:18:32;5.50;99.90
44229;DHT22;29904;51.058;5.378;2023-03-01T17:20:59;5.40;99.90
44229;DHT22;29904;51.058;5.378;2023-03-01T17:23:26;5.30;99.90
44229;DHT22;29904;51.058;5.378;2023-03-01T17:25:52;5.30;99.90
44229;DHT22;29904;51.058;5.378;2023-03-01T17:28:24;5.20;99.90
44229;DHT22;29904;51.058;5.378;2023-03-01T17:30:51;5.10;99.90
44229;DHT22;29904;51.058;5.378;2023-03-01T17:33:19;5.10;99.90
44229;DHT22;29904;51.058;5.378;2023-03-01T17:35:45;5.00;99.90
44229;DHT22;29904;51.058;5.378;2023-03-01T17:38:13;5.00;99.90
44229;DHT22;29904;51.058;5.378;2023-03-01T17:40:42;4.90;99.90
44229;DHT22;29904;51.058;5.378;2023-03-01T17:43:13;4.80;99.90
44229;DHT22;29904;51.058;5.378;2023-03-01T17:45:39;4.80;99.90
44229;DHT22;29904;51.058;5.378;2023-03-01T17:48:06;4.70;99.90
44229;DHT22;29904;51.058;5.378;2023-03-01T17:50:35;4.70;99.90
44229;DHT22;29904;51.058;5.378;2023-03-01T17:53:01;4.60;99.90
44229;DHT22;29904;51.058;5.378;2023-03-01T17:55:31;4.50;99.90
44229;DHT22;29904;51.058;5.378;2023-03-01T17:57:57;4.50;99.90
44229;DHT22;29904;51.058;5.378;2023-03-01T18:00:23;4.50;99.90
44229;DHT22;29904;51.058;5.378;2023-03-01T18:02:49;4.40;99.90
44229;DHT22;29904;51.058;5.378;2023-03-01T18:05:17;4.40;99.90